createdAt,value
2019-04-26T00:04:14.410Z,13.13
2019-04-26T00:12:32.777Z,12.91
2019-04-26T00:15:22.626Z,12.73
2019-04-26T00:20:44.344Z,12.62
2019-04-26T00:23:30.698Z,12.53
2019-04-26T00:25:58.680Z,12.46
2019-04-26T00:28:26.341Z,12.39
2019-04-26T00:30:54.009Z,12.33
2019-04-26T00:33:21.561Z,12.27
2019-04-26T00:35:49.328Z,12.13
2019-04-26T00:38:35.700Z,12.08
2019-04-26T00:41:03.379Z,12.08
2019-04-26T00:43:31.050Z,12.02
2019-04-26T00:46:17.481Z,11.98
2019-04-26T00:48:45.215Z,11.95
2019-04-26T00:51:15.321Z,11.86
2019-04-26T00:53:43.090Z,11.86
2019-04-26T00:56:29.370Z,11.81
2019-04-26T00:59:16.462Z,11.83
2019-04-26T01:04:26.108Z,11.87
2019-04-26T01:07:12.757Z,11.97
2019-04-26T01:09:40.542Z,12.02
2019-04-26T01:12:08.106Z,12.02
2019-04-26T01:14:54.519Z,12.18
2019-04-26T01:17:40.944Z,12.23
2019-04-26T01:20:08.671Z,12.20
2019-04-26T01:22:36.439Z,12.20
2019-04-26T01:25:04.200Z,12.20
2019-04-26T01:27:50.897Z,12.24
2019-04-26T01:30:19.606Z,12.24
2019-04-26T01:32:47.962Z,12.31
2019-04-26T01:35:15.634Z,12.31
2019-04-26T01:37:43.437Z,12.34
2019-04-26T01:43:21.586Z,12.34
2019-04-26T01:48:52.982Z,12.34
2019-04-26T01:51:39.357Z,12.35
2019-04-26T01:54:07.050Z,12.35
2019-04-26T01:56:53.485Z,12.35
2019-04-26T01:59:39.864Z,12.42
2019-04-26T02:02:27.761Z,12.47
2019-04-26T02:07:39.101Z,12.51
2019-04-26T02:10:06.644Z,12.52
2019-04-26T02:13:06.992Z,12.55
2019-04-26T02:15:41.284Z,12.55
2019-04-26T02:20:54.700Z,12.60
2019-04-26T02:26:33.075Z,12.66
2019-04-26T02:29:00.718Z,12.68
2019-04-26T02:31:29.278Z,12.69
2019-04-26T02:33:57.498Z,12.70
2019-04-26T02:36:27.516Z,12.70
2019-04-26T02:38:54.558Z,12.68
2019-04-26T02:41:22.179Z,12.65
2019-04-26T02:44:08.521Z,12.64
2019-04-26T02:49:38.627Z,12.58
2019-04-26T02:52:06.432Z,12.58
2019-04-26T02:54:54.776Z,12.55
2019-04-26T02:57:22.446Z,12.55
2019-04-26T02:59:50.109Z,12.56
2019-04-26T03:02:19.707Z,12.60
2019-04-26T03:04:49.874Z,12.59
2019-04-26T03:07:37.608Z,12.60
2019-04-26T03:10:24.643Z,12.59
2019-04-26T03:13:11.066Z,12.58
2019-04-26T03:15:57.717Z,12.58
2019-04-26T03:18:44.115Z,12.59
2019-04-26T03:21:32.694Z,12.60
2019-04-26T03:24:00.200Z,12.60
2019-04-26T03:26:27.961Z,12.62
2019-04-26T03:28:55.711Z,12.62
2019-04-26T03:31:23.785Z,12.62
2019-04-26T03:33:54.528Z,12.64
2019-04-26T03:41:53.216Z,12.65
2019-04-26T03:44:20.811Z,12.66
2019-04-26T03:46:48.469Z,12.66
2019-04-26T03:49:36.139Z,12.62
2019-04-26T03:52:04.110Z,12.63
2019-04-26T03:54:31.728Z,12.63
2019-04-26T03:57:18.403Z,12.66
2019-04-26T04:00:04.781Z,12.67
2019-04-26T04:08:11.451Z,12.65
2019-04-26T04:10:41.491Z,12.65
2019-04-26T04:13:27.884Z,12.68
2019-04-26T04:15:55.890Z,12.68
2019-04-26T04:21:30.305Z,12.69
2019-04-26T04:23:58.044Z,12.70
2019-04-26T04:26:25.581Z,12.70
2019-04-26T04:28:53.254Z,12.65
2019-04-26T04:31:40.495Z,12.52
2019-04-26T04:50:26.738Z,12.04
2019-04-26T04:53:13.101Z,11.97
2019-04-26T04:55:42.863Z,11.94
2019-04-26T04:58:10.300Z,11.94
2019-04-26T05:00:57.047Z,11.91
2019-04-26T05:03:43.939Z,11.83
2019-04-26T05:06:31.582Z,11.83
2019-04-26T05:08:59.263Z,11.59
2019-04-26T05:11:26.932Z,11.59
2019-04-26T05:14:13.375Z,11.48
2019-04-26T05:19:48.564Z,11.22
2019-04-26T05:22:16.145Z,11.21
2019-04-26T05:25:02.581Z,11.19
2019-04-26T05:30:37.647Z,11.17
2019-04-26T05:33:24.054Z,11.15
2019-04-26T05:36:10.336Z,11.13
2019-04-26T05:38:37.914Z,11.13
2019-04-26T05:41:24.297Z,11.12
2019-04-26T05:47:02.341Z,11.10
2019-04-26T05:49:50.238Z,11.10
2019-04-26T05:52:36.746Z,11.10
2019-04-26T05:55:23.094Z,11.10
2019-04-26T05:58:09.390Z,11.07
2019-04-26T06:00:55.802Z,10.97
2019-04-26T06:03:42.230Z,10.96
2019-04-26T06:09:13.707Z,10.96
2019-04-26T06:12:00.934Z,11.03
2019-04-26T06:14:48.143Z,11.03
2019-04-26T06:17:34.499Z,11.10
2019-04-26T06:20:23.205Z,11.13
2019-04-26T06:22:53.591Z,11.13
2019-04-26T06:28:18.913Z,11.19
2019-04-26T06:30:46.647Z,11.24
2019-04-26T06:33:33.004Z,11.29
2019-04-26T06:41:59.065Z,11.39
2019-04-26T06:47:34.856Z,11.48
2019-04-26T06:50:21.198Z,11.50
2019-04-26T06:52:48.912Z,11.51
2019-04-26T06:55:35.255Z,11.50
2019-04-26T06:58:21.699Z,11.50
2019-04-26T07:01:20.264Z,11.52
2019-04-26T07:03:37.396Z,11.52
2019-04-26T07:06:06.519Z,11.52
2019-04-26T07:08:34.639Z,11.52
2019-04-26T07:13:56.327Z,11.69
2019-04-26T07:19:16.947Z,11.77
2019-04-26T07:24:51.707Z,11.83
2019-04-26T07:30:26.213Z,11.87
2019-04-26T07:35:42.217Z,11.93
2019-04-26T07:38:11.002Z,11.93
2019-04-26T07:40:58.034Z,11.93
2019-04-26T07:43:44.331Z,11.93
2019-04-26T07:46:23.888Z,11.97
2019-04-26T07:48:59.994Z,12.02
2019-04-26T07:51:46.407Z,12.09
2019-04-26T07:54:32.786Z,12.09
2019-04-26T07:57:00.509Z,12.16
2019-04-26T07:59:59.543Z,12.12
2019-04-26T08:02:34.971Z,12.12
2019-04-26T08:05:21.398Z,12.14
2019-04-26T08:08:00.663Z,12.13
2019-04-26T08:10:37.095Z,12.16
2019-04-26T08:16:10.508Z,12.21
2019-04-26T08:21:49.251Z,12.22
2019-04-26T08:24:35.595Z,12.30
2019-04-26T08:27:36.020Z,12.30
2019-04-26T08:29:51.260Z,12.40
2019-04-26T08:35:30.864Z,12.57
2019-04-26T08:38:22.362Z,12.66
2019-04-26T08:40:46.531Z,12.86
2019-04-26T08:43:32.974Z,12.86
2019-04-26T08:46:20.245Z,12.92
2019-04-26T08:49:08.487Z,12.88
2019-04-26T08:51:55.979Z,12.90
2019-04-26T08:54:45.927Z,12.91
2019-04-26T09:00:10.067Z,12.90
2019-04-26T09:06:03.236Z,12.92
2019-04-26T09:08:20.356Z,13.04
2019-04-26T09:11:06.789Z,13.17
2019-04-26T09:13:34.404Z,13.25
2019-04-26T09:16:35.595Z,13.25
2019-04-26T09:18:57.270Z,13.22
2019-04-26T09:21:41.315Z,13.24
2019-04-26T09:24:27.659Z,13.20
2019-04-26T09:27:17.133Z,13.20
2019-04-26T09:30:04.902Z,13.10
2019-04-26T09:32:50.066Z,13.10
2019-04-26T09:35:21.758Z,13.06
2019-04-26T09:37:49.709Z,13.04
2019-04-26T09:40:21.578Z,13.07
2019-04-26T09:43:02.581Z,13.12
2019-04-26T09:45:48.078Z,13.12
2019-04-26T09:48:20.499Z,13.28
2019-04-26T09:50:52.807Z,13.28
2019-04-26T09:53:21.267Z,13.36
2019-04-26T09:55:53.965Z,13.45
2019-04-26T09:58:22.199Z,13.45
2019-04-26T10:00:50.239Z,13.60
2019-04-26T10:03:37.057Z,13.66
2019-04-26T10:06:13.663Z,13.69
2019-04-26T10:08:47.020Z,13.70
2019-04-26T10:11:16.019Z,13.75
2019-04-26T10:13:51.960Z,13.75
2019-04-26T10:16:29.881Z,13.78
2019-04-26T10:19:00.572Z,13.79
2019-04-26T10:21:28.425Z,13.77
2019-04-26T10:23:55.891Z,13.74
2019-04-26T10:26:27.718Z,13.72
2019-04-26T10:28:54.999Z,13.72
2019-04-26T10:31:24.730Z,13.72
2019-04-26T10:33:52.269Z,13.75
2019-04-26T10:36:21.290Z,13.74
2019-04-26T10:38:48.858Z,13.74
2019-04-26T10:41:19.345Z,13.75
2019-04-26T10:43:48.847Z,13.75
2019-04-26T10:46:18.201Z,13.75
2019-04-26T10:48:49.654Z,13.79
2019-04-26T10:51:18.070Z,13.79
2019-04-26T10:54:01.531Z,13.80
2019-04-26T10:56:49.451Z,13.75
2019-04-26T10:59:26.453Z,13.72
2019-04-26T11:01:54.661Z,13.75
2019-04-26T11:04:25.770Z,13.78
2019-04-26T11:06:52.610Z,13.83
2019-04-26T11:09:52.925Z,13.95
2019-04-26T11:15:01.149Z,14.54
2019-04-26T11:20:50.478Z,14.71
2019-04-26T11:25:42.201Z,14.93
2019-04-26T11:28:12.477Z,15.07
2019-04-26T11:30:41.287Z,15.36
2019-04-26T11:33:27.682Z,15.36
2019-04-26T11:35:55.273Z,15.36
2019-04-26T11:38:26.718Z,15.36
2019-04-26T11:41:23.405Z,15.35
2019-04-26T11:43:40.204Z,15.32
2019-04-26T11:46:29.073Z,15.39
2019-04-26T11:48:59.117Z,15.39
2019-04-26T11:51:44.180Z,15.48
2019-04-26T11:54:30.563Z,15.44
2019-04-26T11:57:31.076Z,15.44
2019-04-26T12:02:53.096Z,15.15
2019-04-26T12:05:39.526Z,15.16
2019-04-26T12:08:56.212Z,15.09
2019-04-26T12:10:58.137Z,15.09
2019-04-26T12:13:46.993Z,15.10
2019-04-26T12:16:18.229Z,15.06
2019-04-26T12:19:02.619Z,14.98
2019-04-26T12:21:48.956Z,15.01
2019-04-26T12:24:16.616Z,15.01
2019-04-26T12:27:03.242Z,14.99
2019-04-26T12:29:31.124Z,14.99
2019-04-26T12:32:01.125Z,15.00
2019-04-26T12:34:32.329Z,15.05
2019-04-26T12:37:21.073Z,15.13
2019-04-26T12:39:48.091Z,15.34
2019-04-26T12:42:15.778Z,15.34
2019-04-26T12:47:56.124Z,15.39
2019-04-26T12:50:42.529Z,15.50
2019-04-26T12:53:10.230Z,15.66
2019-04-26T12:55:58.353Z,15.79
2019-04-26T13:01:20.155Z,16.18
2019-04-26T13:04:06.583Z,16.43
2019-04-26T13:07:23.405Z,16.59
2019-04-26T13:12:42.239Z,16.76
2019-04-26T13:15:18.281Z,16.99
2019-04-26T13:18:20.407Z,17.27
2019-04-26T13:23:29.928Z,18.16
2019-04-26T13:25:59.668Z,18.55
2019-04-26T13:28:24.940Z,18.55
2019-04-26T13:31:18.640Z,18.38
2019-04-26T13:36:39.976Z,18.42
2019-04-26T13:42:07.697Z,18.30
2019-04-26T13:44:50.089Z,18.20
2019-04-26T13:47:36.484Z,18.08
2019-04-26T13:50:26.667Z,17.96
2019-04-26T13:53:10.852Z,17.88
2019-04-26T13:55:38.793Z,18.05
2019-04-26T14:00:43.621Z,18.04
2019-04-26T14:03:31.606Z,17.93
2019-04-26T14:06:17.192Z,17.93
2019-04-26T14:11:49.882Z,17.90
2019-04-26T14:14:17.604Z,17.87
2019-04-26T14:17:04.051Z,17.90
2019-04-26T14:22:24.655Z,18.16
2019-04-26T14:27:52.832Z,18.07
2019-04-26T14:33:12.629Z,17.71
2019-04-26T14:35:40.277Z,17.54
2019-04-26T14:38:28.055Z,17.28
2019-04-26T14:41:03.771Z,17.10
2019-04-26T14:46:30.431Z,16.83
2019-04-26T14:49:19.137Z,16.74
2019-04-26T14:54:41.442Z,16.54
2019-04-26T14:57:16.932Z,16.54
2019-04-26T14:59:58.775Z,16.50
2019-04-26T15:02:47.314Z,16.55
2019-04-26T15:05:33.404Z,16.60
2019-04-26T15:11:07.995Z,16.54
2019-04-26T15:13:40.216Z,16.41
2019-04-26T15:16:24.437Z,16.28
2019-04-26T15:19:12.609Z,16.20
2019-04-26T15:21:59.406Z,16.20
2019-04-26T15:24:30.055Z,16.30
2019-04-26T15:27:15.125Z,16.44
2019-04-26T15:29:42.698Z,16.85
2019-04-26T15:32:32.833Z,16.85
2019-04-26T15:37:51.236Z,18.36
2019-04-26T15:40:37.933Z,18.36
2019-04-26T15:43:24.288Z,19.06
2019-04-26T15:46:12.360Z,20.41
2019-04-26T15:48:59.057Z,20.41
2019-04-26T15:51:28.944Z,21.13
2019-04-26T15:53:56.406Z,21.66
2019-04-26T15:56:42.727Z,22.11
2019-04-26T15:59:10.491Z,22.75
2019-04-26T16:01:41.877Z,24.23
2019-04-26T16:04:40.156Z,24.23
2019-04-26T16:06:57.159Z,24.94
2019-04-26T16:09:43.536Z,25.40
2019-04-26T16:12:11.163Z,25.49
2019-04-26T16:14:39.114Z,25.54
2019-04-26T16:17:06.877Z,24.79
2019-04-26T16:22:30.062Z,22.76
2019-04-26T16:27:48.819Z,21.24
2019-04-26T16:30:37.526Z,20.51
2019-04-26T16:33:35.482Z,19.91
2019-04-26T16:35:52.554Z,19.14
2019-04-26T16:38:40.527Z,18.77
2019-04-26T16:41:08.271Z,18.77
2019-04-26T16:46:27.478Z,18.12
2019-04-26T16:49:02.280Z,18.02
2019-04-26T16:51:28.294Z,18.01
2019-04-26T16:54:06.727Z,17.87
2019-04-26T16:56:28.124Z,17.74
2019-04-26T16:58:55.203Z,17.57
2019-04-26T17:01:23.579Z,17.57
2019-04-26T17:03:53.016Z,17.50
2019-04-26T17:06:32.677Z,17.45
2019-04-26T17:09:09.148Z,17.41
2019-04-26T17:14:47.727Z,17.34
2019-04-26T17:17:27.111Z,17.34
2019-04-26T17:20:06.626Z,17.31
2019-04-26T17:22:59.172Z,17.20
2019-04-26T17:25:39.386Z,17.12
2019-04-26T17:31:12.502Z,16.94
2019-04-26T17:34:12.583Z,16.85
2019-04-26T17:36:50.460Z,16.76
2019-04-26T17:42:10.541Z,16.48
2019-04-26T17:44:41.260Z,16.48
2019-04-26T17:47:34.676Z,16.37
2019-04-26T17:50:02.747Z,16.28
2019-04-26T17:52:36.043Z,16.18
2019-04-26T17:55:01.348Z,15.99
2019-04-26T17:57:34.833Z,15.99
2019-04-26T18:00:07.950Z,15.90
2019-04-26T18:02:41.948Z,15.72
2019-04-26T18:05:05.280Z,15.72
2019-04-26T18:07:56.355Z,15.67
2019-04-26T18:10:19.676Z,15.64
2019-04-26T18:12:47.936Z,15.62
2019-04-26T18:15:18.899Z,15.60
2019-04-26T18:18:13.888Z,15.58
2019-04-26T18:20:59.952Z,15.55
2019-04-26T18:23:48.748Z,15.53
2019-04-26T18:29:14.053Z,15.47
2019-04-26T18:31:43.680Z,15.45
2019-04-26T18:34:30.515Z,15.40
2019-04-26T18:37:01.917Z,15.40
2019-04-26T18:39:33.069Z,14.96
2019-04-26T18:42:33.340Z,14.96
2019-04-26T18:45:08.010Z,14.05
2019-04-26T18:48:08.630Z,13.05
2019-04-26T18:53:36.649Z,12.81
2019-04-26T18:56:03.428Z,12.81
2019-04-26T18:58:51.413Z,12.77
2019-04-26T19:04:13.568Z,12.76
2019-04-26T19:06:59.775Z,12.77
2019-04-26T19:09:58.825Z,12.77
2019-04-26T19:15:08.364Z,12.83
2019-04-26T19:18:07.193Z,12.83
2019-04-26T19:20:42.792Z,12.77
2019-04-26T19:26:03.841Z,12.59
2019-04-26T19:29:15.519Z,12.35
2019-04-26T19:31:38.333Z,12.35
2019-04-26T19:36:59.766Z,12.15
2019-04-26T19:42:22.429Z,12.13
2019-04-26T19:45:16.677Z,12.12
2019-04-26T19:47:56.964Z,12.12
2019-04-26T19:50:48.973Z,12.07
2019-04-26T19:53:33.548Z,12.07
2019-04-26T19:56:24.560Z,12.05
2019-04-26T19:59:21.927Z,12.03
2019-04-26T20:04:37.147Z,11.95
2019-04-26T20:07:24.276Z,11.83
2019-04-26T20:12:45.664Z,11.80
2019-04-26T20:15:32.439Z,11.73
2019-04-26T20:18:38.754Z,11.68
2019-04-26T20:21:12.616Z,11.66
2019-04-26T20:26:31.524Z,11.57
2019-04-26T20:29:14.580Z,11.57
2019-04-26T20:31:49.662Z,11.52
2019-04-26T20:37:16.173Z,11.36
2019-04-26T20:48:56.505Z,11.03
2019-04-26T20:51:20.017Z,11.03
2019-04-26T20:53:43.957Z,10.88
2019-04-26T20:59:20.233Z,10.80
2019-04-26T21:02:05.447Z,10.73
2019-04-26T21:04:38.331Z,10.73
2019-04-26T21:07:06.679Z,10.72
2019-04-26T21:09:52.076Z,10.72
2019-04-26T21:15:28.237Z,10.71
2019-04-26T21:18:04.173Z,10.65
2019-04-26T21:20:52.138Z,10.55
2019-04-26T21:26:16.315Z,10.35
2019-04-26T21:31:59.240Z,10.28
2019-04-26T21:34:38.943Z,10.14
2019-04-26T21:37:25.363Z,10.14
2019-04-26T21:40:11.647Z,10.13
2019-04-26T21:42:59.420Z,10.12
2019-04-26T21:48:32.898Z,10.13
2019-04-26T21:53:55.553Z,10.16
2019-04-26T21:56:23.608Z,10.16
2019-04-26T21:59:11.362Z,10.07
2019-04-26T22:04:34.096Z,9.89
2019-04-26T22:07:20.783Z,9.80
2019-04-26T22:10:09.401Z,9.80
2019-04-26T22:12:38.899Z,9.75
2019-04-26T22:15:25.293Z,9.69
2019-04-26T22:18:15.315Z,9.60
2019-04-26T22:23:55.131Z,9.59
2019-04-26T22:26:47.740Z,9.65
2019-04-26T22:29:33.329Z,9.65
2019-04-26T22:32:20.007Z,9.77
2019-04-26T22:37:41.417Z,9.87
2019-04-26T22:40:10.487Z,9.87
2019-04-26T22:42:58.401Z,9.96
2019-04-26T22:48:44.065Z,9.98
2019-04-26T22:51:11.611Z,9.97
2019-04-26T22:54:04.273Z,9.96
2019-04-26T22:59:33.881Z,9.86
2019-04-26T23:02:03.471Z,9.81
2019-04-26T23:10:13.319Z,9.77
2019-04-26T23:16:08.341Z,9.76
2019-04-26T23:18:53.742Z,9.76
2019-04-26T23:21:45.493Z,9.66
2019-04-26T23:27:20.486Z,9.62
2019-04-26T23:29:49.812Z,9.63
2019-04-26T23:32:18.472Z,9.63
2019-04-26T23:34:46.186Z,9.64
2019-04-26T23:40:20.606Z,9.72
2019-04-26T23:45:42.853Z,9.77
2019-04-26T23:48:12.189Z,9.77
2019-04-26T23:50:39.828Z,9.77
2019-04-26T23:56:16.273Z,9.75
2019-04-26T23:59:01.044Z,9.68
